Terminal Aerodrome Forecast
Issued by NWS

Home | Current Version | Previous Version | Text Only | Print | Product List | Glossary On
Versions: 1 2 3 4 5 6 7 8 9 10 11 12 13 14 15 16 17 18 19
000
FTUS42 KMHX 280521
TAFISO
TAF
KISO 280521Z 2806/0106 05006KT P6SM SKC
     FM281700 05010G15KT P6SM SCT150
     FM282200 04008KT P6SM BKN150
     FM010400 10007KT P6SM BKN060
      AMD LTD TO CLD VIS AND WIND=

USA.gov is the U.S. government's official web portal to all federal, state and local government web resources and services.